HETR

El Tor Airport

Egypt
TAF HETR 191700Z 1918/2024 33008G22KT CAVOK TEMPO 2000/2005 VRB03KT
Issued Valid From Valid To
Sep-19 @ 17:00 UTC
(6 hours ago)
Sep-19 @ 18:00 UTC
(5 hours ago)
Sep-21 @ 00:00 UTC
(-1 days ago)
Sep-19 @ 18:00 to Sep-21 @ 00:00
TAF HETR 191700Z 1918/2024 33008G22KT CAVOK
Wind Visibility Clouds Conditions
330° at 8 knots
 Gusting to 22 knots
10,000+ meters
  • No significant clouds
Temporary Sep-20 @ 00:00 to Sep-20 @ 05:00
TEMPO 2000/2005 VRB03KT
Wind
Variable at 3 knots
TAF HETR 191700Z 1918/2024 33008G22KT CAVOK TEMPO 2000/2005 VRB03KT
Issued Sep-19 @ 17:00 UTC
(6 hours ago)
Valid From Sep-19 @ 18:00 UTC
(5 hours ago)
Valid To Sep-21 @ 00:00 UTC
(-1 days ago)
Sep-19 @ 18:00 - Sep-21 @ 00:00
Wind Visibility
330° at 8 knots
 Gusting to 22 knots
10,000+ meters
Clouds
  • No significant clouds
Conditions
Temporary Sep-20 @ 00:00 - Sep-20 @ 05:00
Wind
Variable at 3 knots